createdAt,value
2018-05-09T00:00:23.120Z,56.30
2018-05-09T00:02:50.554Z,56.60
2018-05-09T00:05:18.017Z,56.90
2018-05-09T00:07:45.452Z,57.30
2018-05-09T00:10:13.667Z,57.80
2018-05-09T00:12:41.124Z,57.70
2018-05-09T00:15:08.579Z,57.50
2018-05-09T00:17:36.019Z,57.40
2018-05-09T00:20:03.480Z,57.20
2018-05-09T00:22:30.927Z,56.90
2018-05-09T00:24:58.379Z,56.80
2018-05-09T00:27:25.823Z,57.20
2018-05-09T00:29:53.282Z,57.70
2018-05-09T00:32:20.730Z,57.10
2018-05-09T00:34:48.171Z,57.20
2018-05-09T00:37:15.615Z,58.30
2018-05-09T00:39:43.835Z,58.10
2018-05-09T00:42:11.275Z,58.10
2018-05-09T00:44:38.719Z,58.30
2018-05-09T00:47:06.188Z,58.90
2018-05-09T00:49:34.375Z,58.10
2018-05-09T00:52:01.832Z,58.10
2018-05-09T00:54:32.843Z,58.80
2018-05-09T00:57:01.048Z,59.30
2018-05-09T00:59:29.267Z,59.30
2018-05-09T01:01:56.712Z,59.30
2018-05-09T01:04:24.163Z,59.80
2018-05-09T01:06:51.612Z,59.00
2018-05-09T01:09:19.062Z,59.10
2018-05-09T01:11:46.503Z,58.70
2018-05-09T01:14:13.957Z,59.50
2018-05-09T01:16:41.404Z,59.50
2018-05-09T01:19:08.855Z,59.10
2018-05-09T01:21:36.295Z,58.80
2018-05-09T01:24:04.506Z,59.00
2018-05-09T01:26:31.950Z,58.90
2018-05-09T01:28:59.399Z,59.40
2018-05-09T01:31:26.839Z,59.30
2018-05-09T01:33:55.059Z,60.00
2018-05-09T01:36:22.503Z,60.00
2018-05-09T01:38:49.946Z,59.90
2018-05-09T01:41:17.391Z,59.70
2018-05-09T01:43:44.836Z,60.00
2018-05-09T01:46:13.051Z,61.00
2018-05-09T01:48:40.509Z,61.00
2018-05-09T01:51:07.961Z,61.20
2018-05-09T01:53:35.402Z,60.90
2018-05-09T01:56:02.855Z,61.80
2018-05-09T03:25:28.610Z,70.60
2018-05-09T03:27:56.051Z,71.10
2018-05-09T03:30:23.500Z,71.10
2018-05-09T03:32:50.947Z,71.10
2018-05-09T03:35:18.391Z,71.20
2018-05-09T03:37:45.835Z,71.10
2018-05-09T03:40:13.287Z,71.30
2018-05-09T03:42:40.731Z,71.50
2018-05-09T03:45:08.951Z,72.00
2018-05-09T03:47:36.395Z,72.00
2018-05-09T03:50:03.853Z,72.20
2018-05-09T03:52:31.295Z,72.40
2018-05-09T03:54:58.741Z,72.90
2018-05-09T03:57:26.184Z,72.70
2018-05-09T03:59:54.399Z,72.90
2018-05-09T04:02:37.747Z,72.80
2018-05-09T04:05:17.114Z,73.40
2018-05-09T04:07:56.458Z,73.50
2018-05-09T04:10:24.674Z,74.80
2018-05-09T04:12:52.938Z,74.70
2018-05-09T04:15:20.383Z,75.50
2018-05-09T04:17:47.827Z,75.50
2018-05-09T04:20:16.035Z,74.90
2018-05-09T04:22:43.474Z,74.90
2018-05-09T04:25:10.907Z,74.70
2018-05-09T04:27:39.124Z,75.20
2018-05-09T04:30:06.563Z,75.00
2018-05-09T04:32:34.009Z,75.20
2018-05-09T04:35:02.219Z,75.40
2018-05-09T04:37:29.671Z,75.30
2018-05-09T04:49:53.476Z,75.50
2018-05-09T04:52:21.696Z,75.70
2018-05-09T04:54:49.134Z,75.60
2018-05-09T04:57:16.593Z,75.00
2018-05-09T04:59:44.034Z,74.30
2018-05-09T05:02:11.481Z,73.80
2018-05-09T05:04:39.678Z,72.70
2018-05-09T05:07:07.196Z,72.60
2018-05-09T05:09:35.357Z,71.60
2018-05-09T05:12:02.801Z,71.60
2018-05-09T05:14:30.243Z,71.30
2018-05-09T05:16:57.703Z,70.80
2018-05-09T05:19:25.204Z,70.70
2018-05-09T05:21:52.595Z,70.40
2018-05-09T05:24:20.039Z,70.10
2018-05-09T05:26:47.495Z,70.20
2018-05-09T05:29:14.951Z,69.90
2018-05-09T05:31:42.416Z,70.10
2018-05-09T05:34:09.858Z,70.00
2018-05-09T05:36:37.311Z,70.00
2018-05-09T05:39:05.562Z,70.00
2018-05-09T05:41:33.007Z,69.90
2018-05-09T05:44:00.449Z,69.90
2018-05-09T05:46:27.899Z,69.80
2018-05-09T05:48:55.351Z,70.10
2018-05-09T05:51:22.800Z,70.10
2018-05-09T05:53:50.251Z,70.00
2018-05-09T05:56:17.711Z,70.00
2018-05-09T05:58:45.155Z,69.60
2018-05-09T06:01:12.623Z,69.10
2018-05-09T06:03:40.080Z,69.00
2018-05-09T06:06:07.554Z,69.00
2018-05-09T06:08:34.999Z,68.50
2018-05-09T06:11:02.464Z,67.90
2018-05-09T06:13:29.911Z,67.70
2018-05-09T06:15:57.376Z,67.20
2018-05-09T06:18:24.823Z,66.10
2018-05-09T06:20:52.296Z,66.10
2018-05-09T06:23:19.743Z,65.40
2018-05-09T06:25:47.189Z,65.70
2018-05-09T06:28:14.644Z,66.10
2018-05-09T06:30:42.108Z,65.40
2018-05-09T06:33:09.575Z,65.00
2018-05-09T06:35:37.025Z,65.00
2018-05-09T06:38:05.244Z,64.60
2018-05-09T06:40:32.687Z,64.50
2018-05-09T06:43:00.147Z,63.70
2018-05-09T06:45:27.582Z,63.70
2018-05-09T06:47:55.045Z,64.80
2018-05-09T06:50:22.494Z,63.50
2018-05-09T06:52:49.948Z,63.40
2018-05-09T06:55:17.444Z,63.00
2018-05-09T06:57:44.895Z,62.70
2018-05-09T07:00:12.347Z,62.70
2018-05-09T07:02:39.815Z,62.80
2018-05-09T07:05:07.262Z,63.20
2018-05-09T07:07:34.706Z,61.90
2018-05-09T07:10:02.155Z,60.90
2018-05-09T07:12:29.630Z,61.40
2018-05-09T07:14:57.068Z,60.60
2018-05-09T07:17:24.547Z,61.30
2018-05-09T07:19:51.987Z,58.80
2018-05-09T07:22:20.485Z,56.50
2018-05-09T07:24:47.984Z,55.20
2018-05-09T07:27:17.483Z,49.90
2018-05-09T07:29:45.999Z,49.80
2018-05-09T07:32:13.738Z,47.30
2018-05-09T07:34:42.010Z,47.40
2018-05-09T07:37:09.541Z,47.40
2018-05-09T07:39:38.389Z,45.90
2018-05-09T07:42:05.981Z,44.80
2018-05-09T07:44:34.096Z,44.20
2018-05-09T07:47:01.657Z,43.80
2018-05-09T07:49:29.146Z,41.50
2018-05-09T07:51:57.292Z,41.10
2018-05-09T07:54:25.962Z,40.50
2018-05-09T07:56:53.452Z,38.60
2018-05-09T07:59:21.022Z,39.40
2018-05-09T08:01:48.543Z,40.10
2018-05-09T08:04:16.078Z,38.90
2018-05-09T08:06:43.995Z,37.30
2018-05-09T08:09:11.733Z,36.60
2018-05-09T08:11:39.263Z,37.60
2018-05-09T08:14:06.776Z,37.30
2018-05-09T08:16:34.622Z,37.90
2018-05-09T08:19:02.127Z,36.60
2018-05-09T08:21:29.611Z,36.50
2018-05-09T08:23:57.878Z,37.20
2018-05-09T08:26:25.360Z,37.20
2018-05-09T08:28:53.612Z,36.10
2018-05-09T08:31:29.228Z,36.10
2018-05-09T08:33:56.759Z,34.60
2018-05-09T08:36:24.289Z,34.30
2018-05-09T08:38:51.842Z,33.10
2018-05-09T08:41:20.207Z,32.70
2018-05-09T08:43:47.860Z,32.60
2018-05-09T08:46:15.317Z,31.90
2018-05-09T08:48:43.591Z,34.20
2018-05-09T08:51:11.096Z,34.10
2018-05-09T08:53:38.629Z,32.20
2018-05-09T08:56:06.208Z,33.70
2018-05-09T08:58:33.701Z,32.70
2018-05-09T09:01:01.293Z,31.40
2018-05-09T09:03:29.595Z,29.30
2018-05-09T09:05:58.006Z,28.50
2018-05-09T09:08:26.365Z,27.70
2018-05-09T09:10:53.915Z,27.70
2018-05-09T09:13:21.436Z,28.20
2018-05-09T09:15:49.053Z,28.70
2018-05-09T09:18:16.580Z,28.50
2018-05-09T09:20:44.855Z,28.70
2018-05-09T09:23:12.315Z,28.70
2018-05-09T09:25:39.819Z,28.40
2018-05-09T09:28:07.370Z,28.00
2018-05-09T09:30:34.929Z,28.40
2018-05-09T09:33:02.607Z,28.80
2018-05-09T09:35:30.327Z,28.80
2018-05-09T09:37:57.936Z,27.70
2018-05-09T09:40:25.676Z,27.60
2018-05-09T09:42:53.368Z,26.50
2018-05-09T09:45:21.095Z,24.10
2018-05-09T09:47:48.640Z,23.10
2018-05-09T09:50:16.216Z,24.60
2018-05-09T09:52:43.680Z,23.80
2018-05-09T09:55:11.120Z,24.90
2018-05-09T09:57:38.588Z,24.70
2018-05-09T10:00:06.041Z,25.50
2018-05-09T10:02:44.328Z,26.00
2018-05-09T10:05:11.800Z,25.80
2018-05-09T10:07:40.138Z,26.30
2018-05-09T10:10:07.617Z,26.10
2018-05-09T10:12:35.915Z,25.00
2018-05-09T10:15:03.379Z,24.90
2018-05-09T10:17:30.853Z,25.50
2018-05-09T10:19:58.319Z,24.50
